Pagrindinis puslapis
METAR-TAF:

METAR-TAF

Oro uostai :

Ulan Udė, Rusija

platuma: 51-50N, ilguma: 107-36E, Aukštis: 510 m

Dabartinis oras

Ataskaita buvo paskelbta 15 minutes, ne 16:00 UTC
Vėjas 2 kt iš Šiaurės/Šiaurės Rytų
Temperatūra -7°C
Drėgmė 86%
Slėgis 1016 hPa
Matomumas 10 km arba daugiau

METAR: UIUU 201600Z 02001MPS 9999 NSC M07/M09 Q1016 R26/CLRD60 NOSIG RMK QFE718/0958

Laikas: 00:15 (16:15 UTC)

Prognozė

Ataskaita buvo paskelbta 2 valandos ir 15 minutes, ne 14:00 UTC
Prognozė galioja nuo 20 metu 15 UTC su 21 metu 15 UTC
Vėjas 6 kt iš Vakarų su gūsio iki 16 kt
Matomumas 10 km arba daugiau
Išsisklaidę debesys ne aukštis 4000 ft, Liūtiniai kamuoliniai debesys.
Tapsmas
nuo 20 metu 19 UTC su 20 metu 21 UTC
Vėjas 10 kt iš Rytų/Šiaurės Rytų

TAF: UIUU 201400Z 2015/2115 27003G08MPS 9999 SCT040CB BECMG 2019/2021 06005MPS

Orai ataskaitas ir orų prognozės (METAR, TAF).

turimą stotys yra geltonos ir raudonos taškus žemėlapyje.

Perkelti pele per norėdami pamatyti stoties vardą.

Tada spustelėkite, norėdami matyti oro stebėjimo ir prognozės.

Norėdami pakeisti žemėlapį: spustelėkite ant žalios mygtukų su juodo kryžiaus žemyn,; žalią mygtuką su brūkšneliu, jei norite nutolinti; arba žalių rodyklių gretimoms žemėlapius.


METAR-TAF: